TimeCDT,TemperatureF,Dew PointF,Humidity,Sea Level PressureIn,VisibilityMPH,Wind Direction,Wind SpeedMPH,Gust SpeedMPH,PrecipitationIn,Events,Conditions,WindDirDegrees,DateUTC
12:15 AM,68.7,48.6,49,30.22,10.0,South,6.9,-,N/A,,Clear,180,2011-10-09 05:15:00
12:35 AM,68.0,48.6,50,30.22,10.0,South,4.6,-,N/A,,Clear,190,2011-10-09 05:35:00
12:55 AM,67.5,48.4,50,30.22,10.0,Calm,Calm,-,N/A,,Clear,0,2011-10-09 05:55:00
1:15 AM,67.3,48.2,50,30.22,10.0,SSW,3.5,-,N/A,,Clear,210,2011-10-09 06:15:00
2:15 AM,59.2,49.1,69,30.24,10.0,WNW,3.5,-,N/A,,Clear,290,2011-10-09 07:15:00
3:15 AM,54.5,47.5,77,30.25,10.0,Calm,Calm,-,N/A,,Clear,0,2011-10-09 08:15:00
3:35 AM,54.7,47.7,77,30.26,10.0,Calm,Calm,-,N/A,,Clear,0,2011-10-09 08:35:00
3:55 AM,52.5,46.8,81,30.26,10.0,Calm,Calm,-,N/A,,Clear,0,2011-10-09 08:55:00
4:15 AM,52.0,46.6,82,30.26,10.0,Calm,Calm,-,N/A,,Clear,0,2011-10-09 09:15:00
4:35 AM,52.0,46.2,81,30.26,10.0,Calm,Calm,-,N/A,,Clear,0,2011-10-09 09:35:00
4:55 AM,50.7,45.9,83,30.27,10.0,Calm,Calm,-,N/A,,Clear,0,2011-10-09 09:55:00
5:15 AM,50.7,45.9,83,30.27,10.0,Calm,Calm,-,N/A,,Clear,0,2011-10-09 10:15:00
5:35 AM,49.6,46.0,87,30.27,10.0,Calm,Calm,-,N/A,,Clear,0,2011-10-09 10:35:00
6:15 AM,47.5,44.8,90,30.28,10.0,Calm,Calm,-,N/A,,Clear,0,2011-10-09 11:15:00
6:35 AM,47.5,44.8,90,30.28,10.0,Calm,Calm,-,N/A,,Clear,0,2011-10-09 11:35:00
6:55 AM,47.5,44.6,90,30.28,10.0,Calm,Calm,-,N/A,,Clear,0,2011-10-09 11:55:00
7:15 AM,47.1,44.4,90,30.29,10.0,Calm,Calm,-,N/A,,Clear,0,2011-10-09 12:15:00
7:55 AM,47.5,44.8,90,30.29,10.0,Calm,Calm,-,N/A,,Clear,0,2011-10-09 12:55:00
8:15 AM,50.0,46.2,87,30.30,10.0,Calm,Calm,-,N/A,,Clear,0,2011-10-09 13:15:00
8:35 AM,52.9,47.8,83,30.30,10.0,Calm,Calm,-,N/A,,Clear,0,2011-10-09 13:35:00
8:55 AM,57.9,50.0,75,30.30,10.0,Calm,Calm,-,N/A,,Clear,0,2011-10-09 13:55:00
9:15 AM,62.2,51.1,67,30.30,10.0,Calm,Calm,-,N/A,,Clear,0,2011-10-09 14:15:00
9:35 AM,66.2,51.8,60,30.30,10.0,SSW,4.6,-,N/A,,Clear,200,2011-10-09 14:35:00
9:55 AM,67.8,51.8,56,30.30,10.0,SSW,3.5,-,N/A,,Clear,200,2011-10-09 14:55:00
10:15 AM,69.1,52.2,55,30.30,10.0,SSW,5.8,-,N/A,,Clear,200,2011-10-09 15:15:00
10:35 AM,70.3,52.3,53,30.30,10.0,SSW,8.1,-,N/A,,Clear,200,2011-10-09 15:35:00
10:55 AM,71.4,52.9,52,30.30,10.0,SSW,3.5,-,N/A,,Clear,200,2011-10-09 15:55:00
11:15 AM,72.9,53.2,50,30.29,10.0,SW,4.6,-,N/A,,Clear,220,2011-10-09 16:15:00
11:35 AM,73.9,53.2,48,30.29,10.0,South,6.9,-,N/A,,Clear,170,2011-10-09 16:35:00
11:55 AM,75.0,53.2,47,30.28,10.0,SSW,4.6,-,N/A,,Clear,210,2011-10-09 16:55:00
12:15 PM,75.9,52.7,44,30.28,10.0,South,5.8,-,N/A,,Clear,190,2011-10-09 17:15:00
12:55 PM,77.9,51.3,39,30.27,10.0,SSW,6.9,-,N/A,,Clear,210,2011-10-09 17:55:00
6:55 PM,67.8,50.9,55,30.21,10.0,SSE,3.5,-,N/A,,Clear,150,2011-10-09 23:55:00
7:55 PM,62.2,50.7,66,30.22,10.0,Calm,Calm,-,N/A,,Clear,0,2011-10-10 00:55:00
8:35 PM,58.1,50.2,75,30.22,10.0,Calm,Calm,-,N/A,,Clear,0,2011-10-10 01:35:00
9:15 PM,54.9,49.5,82,30.22,10.0,Calm,Calm,-,N/A,,Clear,0,2011-10-10 02:15:00
9:35 PM,55.0,49.1,80,30.22,10.0,Calm,Calm,-,N/A,,Clear,0,2011-10-10 02:35:00
9:55 PM,54.3,48.6,81,30.22,10.0,Calm,Calm,-,N/A,,Clear,0,2011-10-10 02:55:00
10:15 PM,52.5,48.0,85,30.22,10.0,Calm,Calm,-,N/A,,Clear,0,2011-10-10 03:15:00
10:35 PM,51.6,48.0,87,30.22,10.0,Calm,Calm,-,N/A,,Clear,0,2011-10-10 03:35:00
10:55 PM,50.7,48.2,91,30.22,10.0,Calm,Calm,-,N/A,,Clear,0,2011-10-10 03:55:00
11:15 PM,49.8,47.8,93,30.22,10.0,Calm,Calm,-,N/A,,Clear,0,2011-10-10 04:15:00
11:35 PM,48.7,46.9,93,30.22,10.0,Calm,Calm,-,N/A,,Clear,0,2011-10-10 04:35:00
11:55 PM,48.6,46.8,93,30.21,10.0,Calm,Calm,-,N/A,,Clear,0,2011-10-10 04:55:00